createdAt,value
2023-01-29T00:00:15.958Z,13.30
2023-01-29T00:02:43.207Z,13.63
2023-01-29T00:05:26.594Z,12.80
2023-01-29T00:07:56.037Z,12.43
2023-01-29T00:10:24.462Z,12.27
2023-01-29T00:12:51.928Z,11.93
2023-01-29T00:15:19.175Z,8.75
2023-01-29T00:17:46.290Z,10.63
2023-01-29T00:20:13.632Z,11.05
2023-01-29T00:22:40.768Z,11.20
2023-01-29T00:25:08.517Z,9.10
2023-01-29T00:27:35.456Z,10.48
2023-01-29T00:30:12.966Z,10.32
2023-01-29T00:35:08.825Z,8.07
2023-01-29T00:37:36.281Z,6.90
2023-01-29T00:40:04.684Z,8.68
2023-01-29T00:42:50.948Z,7.90
2023-01-29T00:45:17.997Z,6.75
2023-01-29T00:47:45.899Z,7.85
2023-01-29T00:50:13.050Z,7.18
2023-01-29T00:52:41.367Z,6.63
2023-01-29T00:55:11.401Z,5.90
2023-01-29T00:57:39.917Z,6.95
2023-01-29T01:00:10.309Z,6.45
2023-01-29T01:02:55.976Z,6.18
2023-01-29T01:05:23.485Z,6.00
2023-01-29T01:07:53.017Z,5.80
2023-01-29T01:10:22.265Z,6.10
2023-01-29T01:13:01.456Z,6.22
2023-01-29T01:15:35.884Z,5.65
2023-01-29T01:18:04.580Z,6.18
2023-01-29T01:20:34.171Z,6.38
2023-01-29T01:23:01.206Z,6.90
2023-01-29T01:25:28.289Z,5.68
2023-01-29T01:27:57.369Z,6.68
2023-01-29T01:30:25.431Z,5.95
2023-01-29T01:32:53.118Z,6.13
2023-01-29T01:35:20.218Z,6.53
2023-01-29T01:37:47.222Z,5.93
2023-01-29T01:40:20.999Z,6.30
2023-01-29T01:42:51.617Z,6.82
2023-01-29T01:45:34.838Z,6.88
2023-01-29T01:48:13.118Z,6.32
2023-01-29T01:50:45.847Z,7.47
2023-01-29T01:53:40.637Z,7.05
2023-01-29T01:56:12.988Z,6.88
2023-01-29T01:58:50.540Z,6.47
2023-01-29T02:01:19.108Z,6.55
2023-01-29T02:04:20.134Z,6.72
2023-01-29T02:07:06.372Z,7.13
2023-01-29T02:09:40.689Z,6.82
2023-01-29T02:12:12.819Z,6.60
2023-01-29T02:14:41.831Z,5.53
2023-01-29T02:17:28.949Z,6.40
2023-01-29T02:20:04.950Z,5.22
2023-01-29T02:23:02.730Z,5.68
2023-01-29T02:25:52.737Z,6.22
2023-01-29T02:28:44.359Z,6.20
2023-01-29T02:31:24.438Z,2.80
2023-01-29T02:33:56.892Z,2.92
2023-01-29T02:36:26.708Z,3.10
2023-01-29T02:39:04.523Z,2.20
2023-01-29T02:41:42.908Z,2.35
2023-01-29T02:44:20.367Z,2.25
2023-01-29T02:47:09.053Z,1.80
2023-01-29T02:49:52.921Z,2.03
2023-01-29T02:52:50.813Z,1.85
2023-01-29T02:55:30.858Z,1.90
2023-01-29T02:58:11.830Z,1.92
2023-01-29T03:00:45.103Z,2.50
2023-01-29T03:03:24.282Z,2.10
2023-01-29T03:06:20.821Z,2.30
2023-01-29T03:09:15.217Z,1.95
2023-01-29T03:11:49.091Z,1.60
2023-01-29T03:14:56.112Z,2.33
2023-01-29T03:17:31.745Z,2.08
2023-01-29T03:19:59.671Z,2.05
2023-01-29T03:22:27.762Z,2.38
2023-01-29T03:25:16.894Z,2.00
2023-01-29T03:28:14.096Z,1.88
2023-01-29T03:31:12.060Z,2.10
2023-01-29T03:34:10.044Z,1.90
2023-01-29T03:36:46.033Z,2.15
2023-01-29T03:39:15.530Z,1.75
2023-01-29T03:42:00.883Z,1.67
2023-01-29T03:45:12.089Z,2.03
2023-01-29T03:47:48.272Z,2.17
2023-01-29T03:50:52.933Z,2.30
2023-01-29T03:53:54.078Z,2.00
2023-01-29T03:56:45.908Z,2.00
2023-01-29T03:59:33.546Z,1.73
2023-01-29T04:03:03.609Z,1.70
2023-01-29T04:05:41.951Z,1.48
2023-01-29T04:08:21.195Z,1.42
2023-01-29T04:10:51.282Z,1.38
2023-01-29T04:13:19.200Z,1.58
2023-01-29T04:15:55.972Z,1.80
2023-01-29T04:18:46.590Z,1.98
2023-01-29T04:21:14.896Z,2.30
2023-01-29T04:23:41.936Z,2.00
2023-01-29T04:26:27.390Z,2.40
2023-01-29T04:29:17.531Z,2.60
2023-01-29T04:32:07.520Z,2.55
2023-01-29T04:34:46.377Z,3.00
2023-01-29T04:37:21.944Z,2.28
2023-01-29T04:40:00.597Z,2.30
2023-01-29T04:42:34.867Z,2.55
2023-01-29T04:45:39.824Z,2.30
2023-01-29T04:48:27.327Z,1.73
2023-01-29T04:53:49.988Z,1.80
2023-01-29T04:56:29.690Z,1.90
2023-01-29T04:59:04.122Z,1.92
2023-01-29T05:01:33.536Z,2.08
2023-01-29T05:04:04.806Z,1.92
2023-01-29T05:06:32.863Z,1.80
2023-01-29T05:09:02.007Z,2.30
2023-01-29T05:11:33.081Z,1.80
2023-01-29T05:14:04.858Z,2.53
2023-01-29T05:16:44.622Z,2.22
2023-01-29T05:19:13.714Z,2.42
2023-01-29T05:21:44.164Z,2.72
2023-01-29T05:24:23.142Z,2.50
2023-01-29T05:27:11.680Z,2.90
2023-01-29T05:29:43.891Z,2.47
2023-01-29T05:32:10.938Z,2.22
2023-01-29T05:34:37.923Z,2.58
2023-01-29T05:37:04.953Z,2.40
2023-01-29T05:39:31.997Z,2.67
2023-01-29T05:41:59.414Z,2.60
2023-01-29T05:44:26.534Z,2.60
2023-01-29T05:46:53.610Z,2.50
2023-01-29T05:49:20.818Z,2.33
2023-01-29T05:51:47.818Z,2.20
2023-01-29T05:54:14.887Z,2.75
2023-01-29T05:56:41.884Z,2.72
2023-01-29T05:59:08.900Z,2.55
2023-01-29T06:01:36.009Z,2.47
2023-01-29T06:04:03.102Z,2.60
2023-01-29T06:06:30.121Z,2.45
2023-01-29T06:08:57.134Z,3.00
2023-01-29T06:11:27.336Z,2.70
2023-01-29T06:13:55.056Z,2.58
2023-01-29T06:16:22.081Z,2.53
2023-01-29T06:18:49.249Z,2.03
2023-01-29T06:21:16.955Z,3.22
2023-01-29T06:23:45.353Z,2.40
2023-01-29T06:26:14.615Z,2.90
2023-01-29T06:28:42.213Z,2.60
2023-01-29T06:31:27.483Z,2.85
2023-01-29T06:33:57.730Z,2.45
2023-01-29T06:36:24.795Z,3.10
2023-01-29T06:38:51.877Z,3.00
2023-01-29T06:41:19.811Z,3.05
2023-01-29T06:43:47.935Z,3.22
2023-01-29T06:46:15.052Z,2.83
2023-01-29T06:48:42.039Z,2.47
2023-01-29T06:51:10.713Z,2.80
2023-01-29T06:53:39.259Z,2.97
2023-01-29T06:56:07.442Z,2.92
2023-01-29T06:58:38.203Z,2.67
2023-01-29T07:01:07.709Z,2.90
2023-01-29T07:03:34.862Z,3.17
2023-01-29T07:06:02.073Z,2.95
2023-01-29T07:08:29.193Z,2.28
2023-01-29T07:11:00.425Z,3.03
2023-01-29T07:13:27.589Z,2.50
2023-01-29T07:15:54.611Z,3.47
2023-01-29T07:18:21.612Z,3.13
2023-01-29T07:20:48.633Z,3.03
2023-01-29T07:23:15.770Z,2.95
2023-01-29T07:25:42.823Z,3.35
2023-01-29T07:28:10.016Z,3.10
2023-01-29T07:30:37.188Z,3.17
2023-01-29T07:33:08.813Z,3.25
2023-01-29T07:35:40.461Z,3.50
2023-01-29T07:38:08.981Z,1.42
2023-01-29T07:40:36.361Z,2.53
2023-01-29T07:43:06.342Z,2.65
2023-01-29T07:45:36.477Z,3.20
2023-01-29T07:48:05.145Z,2.88
2023-01-29T07:50:33.374Z,2.78
2023-01-29T07:53:00.607Z,2.80
2023-01-29T07:55:27.958Z,2.95
2023-01-29T07:58:00.565Z,3.28
2023-01-29T08:00:27.728Z,3.05
2023-01-29T08:02:54.752Z,3.00
2023-01-29T08:05:21.827Z,2.97
2023-01-29T08:08:05.745Z,3.63
2023-01-29T08:10:36.444Z,3.08
2023-01-29T08:13:05.625Z,2.70
2023-01-29T08:15:33.140Z,2.75
2023-01-29T08:18:01.897Z,2.75
2023-01-29T08:20:29.273Z,3.25
2023-01-29T08:23:05.174Z,2.95
2023-01-29T08:25:33.279Z,2.33
2023-01-29T08:28:01.403Z,2.45
2023-01-29T08:30:31.756Z,2.55
2023-01-29T08:32:58.805Z,2.30
2023-01-29T08:35:26.467Z,2.20
2023-01-29T08:37:59.546Z,2.40
2023-01-29T08:40:34.406Z,2.33
2023-01-29T08:43:04.007Z,2.03
2023-01-29T08:45:36.603Z,2.53
2023-01-29T08:48:04.499Z,2.05
2023-01-29T08:50:32.467Z,1.75
2023-01-29T08:53:00.917Z,2.30
2023-01-29T08:55:29.003Z,2.50
2023-01-29T08:57:57.463Z,2.38
2023-01-29T09:00:24.871Z,2.30
2023-01-29T09:02:51.956Z,2.30
2023-01-29T09:05:19.485Z,2.67
2023-01-29T09:07:46.623Z,2.50
2023-01-29T09:10:13.633Z,2.25
2023-01-29T09:12:43.436Z,2.10
2023-01-29T09:15:10.939Z,2.70
2023-01-29T09:17:37.917Z,2.15
2023-01-29T09:20:08.050Z,3.60
2023-01-29T09:22:35.850Z,2.40
2023-01-29T09:25:02.906Z,2.33
2023-01-29T09:27:30.873Z,2.50
2023-01-29T09:29:57.892Z,2.47
2023-01-29T09:32:52.175Z,2.70
2023-01-29T09:35:12.094Z,2.65
2023-01-29T09:37:39.141Z,2.38
2023-01-29T09:40:07.029Z,2.08
2023-01-29T09:42:44.407Z,1.92
2023-01-29T09:45:16.173Z,2.60
2023-01-29T09:47:46.166Z,2.88
2023-01-29T09:52:59.580Z,2.35
2023-01-29T09:55:30.043Z,2.45
2023-01-29T09:58:00.924Z,2.53
2023-01-29T10:00:43.025Z,2.60
2023-01-29T10:03:24.676Z,3.00
2023-01-29T10:06:09.834Z,2.50
2023-01-29T10:08:44.035Z,2.58
2023-01-29T10:11:43.962Z,2.97
2023-01-29T10:14:38.600Z,2.38
2023-01-29T10:17:28.687Z,2.30
2023-01-29T10:20:30.588Z,2.47
2023-01-29T10:22:59.840Z,2.83
2023-01-29T10:25:27.628Z,2.42
2023-01-29T10:27:58.922Z,2.20
2023-01-29T10:30:34.671Z,2.65
2023-01-29T10:33:06.857Z,2.33
2023-01-29T10:35:41.159Z,2.55
2023-01-29T10:38:41.763Z,2.65
2023-01-29T10:41:08.730Z,1.85
2023-01-29T10:43:47.573Z,3.33
2023-01-29T10:46:45.452Z,3.30
2023-01-29T10:49:41.823Z,2.42
2023-01-29T10:52:28.360Z,2.83
2023-01-29T10:55:05.825Z,2.08
2023-01-29T10:57:38.803Z,2.20
2023-01-29T11:00:13.463Z,2.28
2023-01-29T11:02:49.365Z,2.30
2023-01-29T11:05:27.552Z,2.65
2023-01-29T11:08:08.361Z,2.47
2023-01-29T11:10:44.707Z,2.03
2023-01-29T11:13:16.310Z,2.50
2023-01-29T11:15:44.024Z,2.50
2023-01-29T11:18:15.553Z,2.97
2023-01-29T11:20:59.248Z,2.67
2023-01-29T11:23:31.917Z,2.53
2023-01-29T11:26:00.450Z,2.63
2023-01-29T11:28:37.733Z,2.70
2023-01-29T11:31:15.365Z,2.50
2023-01-29T11:33:42.933Z,2.90
2023-01-29T11:36:38.308Z,2.58
2023-01-29T11:39:16.532Z,2.33
2023-01-29T11:42:05.260Z,2.47
2023-01-29T11:44:43.916Z,2.70
2023-01-29T11:47:16.865Z,2.33
2023-01-29T11:49:47.274Z,2.33
2023-01-29T11:52:17.184Z,2.67
2023-01-29T11:54:53.065Z,2.60
2023-01-29T11:57:24.867Z,2.95
2023-01-29T11:59:53.587Z,3.03
2023-01-29T12:02:30.939Z,2.90
2023-01-29T12:05:06.754Z,3.00
2023-01-29T12:07:35.018Z,2.20
2023-01-29T12:10:02.426Z,2.08
2023-01-29T12:12:40.240Z,2.55
2023-01-29T12:15:22.463Z,2.45
2023-01-29T12:18:20.733Z,2.67
2023-01-29T12:21:02.005Z,2.33
2023-01-29T12:23:38.294Z,2.42
2023-01-29T12:26:16.212Z,2.33
2023-01-29T12:29:05.741Z,3.00
2023-01-29T12:31:46.367Z,3.10
2023-01-29T12:34:31.803Z,3.10
2023-01-29T12:37:20.601Z,3.03
2023-01-29T12:39:49.560Z,3.00
2023-01-29T12:42:24.541Z,2.88
2023-01-29T12:45:03.523Z,3.20
2023-01-29T12:47:31.399Z,3.63
2023-01-29T12:50:05.807Z,3.10
2023-01-29T12:52:47.611Z,2.97
2023-01-29T12:55:24.512Z,3.65
2023-01-29T12:57:57.064Z,3.03
2023-01-29T13:00:28.345Z,2.88
2023-01-29T13:03:01.029Z,3.03
2023-01-29T13:05:49.986Z,3.22
2023-01-29T13:08:16.913Z,2.88
2023-01-29T13:10:49.108Z,2.70
2023-01-29T13:13:19.628Z,2.60
2023-01-29T13:15:49.721Z,2.72
2023-01-29T13:18:31.540Z,2.65
2023-01-29T13:21:00.778Z,2.38
2023-01-29T13:23:39.559Z,2.60
2023-01-29T13:26:09.004Z,2.72
2023-01-29T13:28:36.829Z,2.78
2023-01-29T13:31:31.946Z,2.63
2023-01-29T13:34:29.394Z,3.70
2023-01-29T13:36:59.361Z,3.40
2023-01-29T13:39:36.031Z,1.80
2023-01-29T13:42:16.663Z,2.92
2023-01-29T13:44:57.311Z,2.35
2023-01-29T13:47:30.022Z,2.92
2023-01-29T13:50:08.736Z,2.40
2023-01-29T13:52:43.145Z,2.75
2023-01-29T13:55:19.943Z,2.58
2023-01-29T13:57:47.057Z,2.40
2023-01-29T14:00:24.396Z,3.38
2023-01-29T14:03:00.443Z,3.50
2023-01-29T14:05:30.632Z,2.83
2023-01-29T14:08:06.233Z,2.70
2023-01-29T14:10:35.204Z,3.10
2023-01-29T14:13:04.929Z,3.00
2023-01-29T14:15:37.109Z,3.13
2023-01-29T14:18:16.443Z,2.92
2023-01-29T14:21:04.062Z,2.80
2023-01-29T14:23:55.506Z,3.05
2023-01-29T14:26:45.741Z,2.53
2023-01-29T14:29:14.521Z,2.95
2023-01-29T14:31:48.520Z,3.10
2023-01-29T14:34:35.234Z,2.78
2023-01-29T14:37:16.788Z,3.83
2023-01-29T14:39:50.273Z,4.20
2023-01-29T14:42:17.257Z,3.78
2023-01-29T14:45:22.953Z,3.75
2023-01-29T14:47:49.895Z,3.78
2023-01-29T14:50:29.333Z,3.60
2023-01-29T14:53:25.440Z,4.30
2023-01-29T14:56:03.924Z,3.70
2023-01-29T14:58:42.008Z,3.38
2023-01-29T15:01:37.659Z,3.80
2023-01-29T15:04:05.967Z,4.07
2023-01-29T15:06:38.979Z,3.05
2023-01-29T15:09:14.548Z,4.18
2023-01-29T15:12:29.301Z,3.75
2023-01-29T15:15:19.177Z,3.50
2023-01-29T15:17:52.473Z,3.55
2023-01-29T15:20:34.925Z,4.63
2023-01-29T15:23:03.531Z,4.22
2023-01-29T15:25:38.159Z,4.00
2023-01-29T15:28:10.307Z,3.03
2023-01-29T15:30:38.138Z,4.32
2023-01-29T15:33:10.710Z,4.57
2023-01-29T15:35:40.883Z,3.78
2023-01-29T15:38:15.443Z,3.95
2023-01-29T15:40:54.387Z,4.03
2023-01-29T15:43:27.233Z,4.18
2023-01-29T15:45:58.454Z,4.63
2023-01-29T15:48:40.886Z,3.92
2023-01-29T15:51:12.110Z,3.80
2023-01-29T15:53:51.514Z,4.40
2023-01-29T15:56:28.625Z,4.32
2023-01-29T15:58:59.091Z,4.55
2023-01-29T16:01:27.459Z,3.83
2023-01-29T16:03:56.237Z,3.83
2023-01-29T16:06:25.168Z,3.92
2023-01-29T16:08:54.694Z,3.88
2023-01-29T16:11:22.178Z,5.03
2023-01-29T16:13:52.529Z,4.40
2023-01-29T16:16:25.123Z,4.75
2023-01-29T16:19:00.015Z,5.22
2023-01-29T16:21:33.234Z,4.90
2023-01-29T16:24:09.443Z,5.00
2023-01-29T16:27:00.779Z,4.72
2023-01-29T16:29:33.749Z,4.47
2023-01-29T16:32:06.390Z,3.97
2023-01-29T16:34:42.583Z,5.93
2023-01-29T16:37:23.998Z,4.93
2023-01-29T16:39:54.627Z,5.05
2023-01-29T16:42:25.369Z,4.75
2023-01-29T16:45:05.476Z,5.10
2023-01-29T16:47:34.998Z,5.20
2023-01-29T16:50:22.343Z,4.88
2023-01-29T16:52:58.337Z,5.18
2023-01-29T16:55:25.851Z,5.30
2023-01-29T16:57:56.318Z,3.55
2023-01-29T17:00:28.849Z,4.95
2023-01-29T17:03:03.379Z,5.63
2023-01-29T17:05:33.650Z,5.15
2023-01-29T17:08:04.625Z,5.20
2023-01-29T17:10:32.785Z,4.20
2023-01-29T17:12:59.886Z,3.63
2023-01-29T17:15:47.437Z,4.18
2023-01-29T17:18:23.131Z,4.13
2023-01-29T17:20:51.105Z,4.43
2023-01-29T17:23:18.110Z,4.75
2023-01-29T17:25:46.568Z,4.80
2023-01-29T17:28:16.484Z,4.35
2023-01-29T17:31:00.280Z,4.38
2023-01-29T17:33:32.307Z,4.15
2023-01-29T17:35:59.458Z,3.70
2023-01-29T17:38:33.136Z,4.18
2023-01-29T17:41:06.943Z,3.85
2023-01-29T17:43:34.772Z,4.43
2023-01-29T17:46:02.623Z,4.18
2023-01-29T17:48:40.162Z,4.05
2023-01-29T17:51:18.315Z,3.85
2023-01-29T17:53:47.867Z,4.32
2023-01-29T17:56:36.836Z,4.20
2023-01-29T17:59:19.852Z,3.60
2023-01-29T18:01:49.647Z,3.78
2023-01-29T18:04:17.827Z,4.13
2023-01-29T18:06:47.863Z,3.28
2023-01-29T18:09:24.637Z,3.70
2023-01-29T18:11:57.154Z,2.88
2023-01-29T18:14:30.974Z,3.60
2023-01-29T18:16:58.288Z,3.40
2023-01-29T18:19:27.686Z,3.97
2023-01-29T18:22:19.738Z,3.30
2023-01-29T18:24:46.861Z,4.03
2023-01-29T18:27:13.962Z,3.83
2023-01-29T18:29:40.944Z,3.65
2023-01-29T18:32:07.930Z,3.60
2023-01-29T18:34:34.899Z,3.63
2023-01-29T18:37:07.451Z,3.20
2023-01-29T18:39:34.441Z,3.83
2023-01-29T18:42:01.634Z,3.67
2023-01-29T18:44:31.243Z,2.45
2023-01-29T18:46:58.243Z,4.05
2023-01-29T18:49:25.373Z,4.10
2023-01-29T18:51:54.831Z,4.22
2023-01-29T18:54:25.250Z,3.58
2023-01-29T18:57:13.370Z,2.45
2023-01-29T18:59:46.030Z,3.15
2023-01-29T19:02:15.209Z,3.45
2023-01-29T19:04:45.162Z,4.05
2023-01-29T19:07:15.055Z,3.70
2023-01-29T19:09:43.200Z,3.70
2023-01-29T19:12:10.307Z,3.53
2023-01-29T19:14:37.338Z,4.50
2023-01-29T19:17:04.898Z,3.60
2023-01-29T19:19:32.005Z,4.63
2023-01-29T19:21:59.068Z,3.55
2023-01-29T19:24:27.261Z,4.00
2023-01-29T19:26:54.880Z,3.95
2023-01-29T19:29:22.021Z,3.63
2023-01-29T19:31:49.058Z,3.30
2023-01-29T19:34:16.079Z,3.97
2023-01-29T19:36:43.199Z,4.03
2023-01-29T19:39:11.408Z,3.75
2023-01-29T19:41:38.496Z,4.07
2023-01-29T19:44:05.672Z,3.40
2023-01-29T19:46:32.713Z,3.60
2023-01-29T19:48:59.709Z,4.07
2023-01-29T19:51:29.067Z,4.13
2023-01-29T19:53:56.271Z,3.40
2023-01-29T19:56:23.317Z,4.20
2023-01-29T19:58:57.331Z,4.88
2023-01-29T20:01:25.021Z,3.80
2023-01-29T20:03:52.092Z,3.30
2023-01-29T20:06:22.906Z,3.97
2023-01-29T20:08:50.249Z,4.55
2023-01-29T20:11:20.142Z,4.15
2023-01-29T20:16:15.419Z,3.13
2023-01-29T20:18:42.414Z,3.92
2023-01-29T20:21:13.803Z,4.18
2023-01-29T20:23:41.288Z,3.15
2023-01-29T20:26:11.660Z,4.57
2023-01-29T20:28:38.788Z,3.53
2023-01-29T20:31:07.482Z,4.05
2023-01-29T20:33:39.318Z,4.20
2023-01-29T20:36:09.130Z,4.60
2023-01-29T20:38:36.664Z,4.90
2023-01-29T20:41:08.865Z,5.22
2023-01-29T20:43:36.338Z,5.93
2023-01-29T20:46:04.004Z,5.70
2023-01-29T20:48:31.993Z,5.32
2023-01-29T20:51:15.484Z,5.28
2023-01-29T20:53:45.515Z,4.60
2023-01-29T20:56:13.579Z,4.40
2023-01-29T20:58:43.901Z,5.40
2023-01-29T21:01:16.822Z,5.05
2023-01-29T21:03:44.076Z,4.40
2023-01-29T21:06:11.475Z,5.00
2023-01-29T21:08:39.436Z,4.72
2023-01-29T21:11:08.161Z,5.32
2023-01-29T21:13:35.541Z,5.10
2023-01-29T21:16:04.947Z,5.72
2023-01-29T21:18:32.429Z,5.20
2023-01-29T21:20:59.464Z,4.20
2023-01-29T21:23:26.492Z,5.20
2023-01-29T21:25:53.478Z,4.80
2023-01-29T21:28:20.581Z,4.63
2023-01-29T21:30:48.044Z,5.28
2023-01-29T21:33:15.092Z,4.25
2023-01-29T21:35:42.099Z,5.55
2023-01-29T21:38:09.395Z,4.05
2023-01-29T21:43:11.668Z,4.45
2023-01-29T21:45:40.267Z,4.32
2023-01-29T21:48:07.674Z,5.03
2023-01-29T21:50:34.763Z,5.03
2023-01-29T21:53:02.335Z,4.85
2023-01-29T21:55:29.545Z,4.57
2023-01-29T21:57:56.645Z,4.40
2023-01-29T22:00:23.682Z,4.45
2023-01-29T22:02:51.440Z,4.82
2023-01-29T22:05:20.202Z,4.78
2023-01-29T22:07:48.609Z,4.20
2023-01-29T22:10:18.203Z,4.72
2023-01-29T22:12:45.741Z,5.25
2023-01-29T22:15:13.556Z,4.72
2023-01-29T22:17:41.663Z,4.40
2023-01-29T22:20:13.416Z,4.18
2023-01-29T22:22:40.619Z,4.40
2023-01-29T22:25:08.012Z,4.00
2023-01-29T22:27:35.071Z,4.57
2023-01-29T22:30:02.147Z,4.90
2023-01-29T22:32:32.818Z,4.28
2023-01-29T22:35:00.084Z,4.05
2023-01-29T22:37:27.298Z,4.05
2023-01-29T22:39:54.338Z,6.13
2023-01-29T22:42:21.512Z,4.70
2023-01-29T22:44:48.824Z,4.38
2023-01-29T22:47:16.136Z,4.32
2023-01-29T22:49:45.694Z,4.60
2023-01-29T22:52:12.839Z,4.72
2023-01-29T22:54:41.837Z,4.80
2023-01-29T22:57:13.557Z,4.53
2023-01-29T22:59:40.796Z,4.00
2023-01-29T23:02:08.735Z,4.30
2023-01-29T23:04:35.870Z,4.28
2023-01-29T23:07:03.848Z,4.47
2023-01-29T23:09:31.048Z,4.05
2023-01-29T23:12:01.512Z,5.55
2023-01-29T23:14:28.511Z,5.55
2023-01-29T23:16:55.521Z,4.25
2023-01-29T23:19:22.910Z,4.05
2023-01-29T23:21:50.105Z,4.57
2023-01-29T23:24:17.116Z,3.95
2023-01-29T23:27:02.838Z,5.25
2023-01-29T23:29:29.861Z,4.20
2023-01-29T23:31:56.817Z,5.32
2023-01-29T23:34:24.064Z,4.28
2023-01-29T23:36:51.005Z,3.60
2023-01-29T23:39:17.995Z,4.35
2023-01-29T23:41:45.025Z,3.45
2023-01-29T23:44:12.092Z,4.28
2023-01-29T23:46:39.097Z,4.38
2023-01-29T23:49:06.403Z,4.68
2023-01-29T23:51:33.429Z,4.80
2023-01-29T23:54:00.502Z,4.18
2023-01-29T23:56:27.600Z,4.47
2023-01-29T23:58:56.002Z,4.72
